Time;durP1;ratioP1;P1;durP2;ratioP2;P2;SDS_P1;SDS_P2;PMS_P1;PMS_P2;Temp;Humidity;BMP_temperature;BMP_pressure;BME280_temperature;BME280_humidity;BME280_pressure;Samples;Min_cycle;Max_cycle;Signal;HPM_P1;HPM_P2
2022/12/16 00:01:27;;;;;;;30.23;15.68;;;-2.70;99.90;;;1.18;56.00;96363.41;5039733;28;20247;-56
2022/12/16 00:03:57;;;;;;;35.17;17.33;;;-2.60;99.90;;;1.06;56.51;96353.97;5040295;28;20044;-58
2022/12/16 00:06:29;;;;;;;35.97;18.70;;;-2.60;99.90;;;1.10;56.07;96363.22;5040116;28;20047;-58
2022/12/16 00:08:58;;;;;;;28.53;15.13;;;-2.70;99.90;;;0.95;56.86;96357.53;5041383;28;20098;-57
2022/12/16 00:11:26;;;;;;;31.17;16.97;;;-2.70;99.90;;;1.00;56.60;96366.78;5039764;28;20367;-57
2022/12/16 00:13:54;;;;;;;28.17;14.83;;;-2.70;99.90;;;0.78;57.38;96366.03;5040209;28;20344;-59
2022/12/16 00:16:22;;;;;;;32.40;16.00;;;-2.70;99.90;;;0.95;56.34;96365.41;5041047;28;20049;-59
2022/12/16 00:18:50;;;;;;;27.70;13.87;;;-2.80;99.90;;;0.63;57.29;96375.19;5041106;28;20053;-58
2022/12/16 00:21:19;;;;;;;31.30;18.00;;;-2.80;99.90;;;1.02;56.41;96376.16;5039125;28;20049;-58
2022/12/16 00:23:47;;;;;;;29.83;16.27;;;-2.80;99.90;;;1.12;56.56;96360.47;5040240;28;20042;-58
2022/12/16 00:26:15;;;;;;;28.80;15.37;;;-2.60;99.90;;;1.04;56.27;96357.69;5040975;28;20056;-58
2022/12/16 00:28:43;;;;;;;36.40;17.13;;;-2.70;99.90;;;1.23;55.68;96357.75;5041208;28;20037;-58
2022/12/16 00:31:11;;;;;;;32.73;15.50;;;-2.60;99.90;;;1.07;56.65;96357.44;5041355;28;20051;-58
2022/12/16 00:33:39;;;;;;;32.20;17.10;;;-2.60;99.90;;;1.11;56.20;96361.44;5043864;28;20049;-58
2022/12/16 00:36:08;;;;;;;28.73;15.77;;;-2.70;99.90;;;1.11;56.00;96359.66;5043602;28;20045;-58
2022/12/16 00:38:36;;;;;;;31.27;16.50;;;-2.70;99.90;;;1.21;55.88;96364.91;5036755;28;20243;-56
2022/12/16 00:41:05;;;;;;;28.47;16.97;;;-2.70;99.90;;;1.22;56.35;96369.19;5043989;28;20048;-58
2022/12/16 00:43:33;;;;;;;31.73;15.10;;;-2.60;99.90;;;0.92;57.27;96375.31;5044220;28;20401;-58
2022/12/16 00:46:01;;;;;;;40.00;18.07;;;-2.70;99.90;;;1.23;56.29;96368.22;5044431;28;20044;-59
2022/12/16 00:48:29;;;;;;;31.17;16.87;;;-2.60;99.90;;;1.26;56.04;96369.75;5042850;28;20055;-58
2022/12/16 00:50:56;;;;;;;34.23;16.80;;;-2.60;99.90;;;1.25;56.24;96375.97;5043875;28;20044;-58
2022/12/16 00:53:24;;;;;;;32.23;16.67;;;-2.60;99.90;;;1.28;55.70;96378.28;5044269;28;20056;-59
2022/12/16 00:56:05;;;;;;;32.60;16.67;;;-2.60;99.90;;;1.30;56.08;96381.63;5044358;28;20056;-59
2022/12/16 00:58:33;;;;;;;33.60;16.50;;;-2.60;99.90;;;1.42;55.56;96390.22;5042686;28;20060;-58
2022/12/16 01:01:02;;;;;;;32.33;16.30;;;-2.50;99.90;;;1.42;55.48;96392.84;5044426;28;20067;-60
2022/12/16 01:03:30;;;;;;;29.10;16.17;;;-2.50;99.90;;;1.33;55.95;96397.91;5042797;28;20045;-59
2022/12/16 01:05:58;;;;;;;34.67;16.70;;;-2.60;99.90;;;1.25;56.14;96407.44;5042931;28;20385;-60
2022/12/16 01:08:26;;;;;;;33.77;17.60;;;-2.60;99.90;;;1.37;56.31;96395.84;5043945;28;20048;-59
2022/12/16 01:10:56;;;;;;;27.47;15.33;;;-2.60;99.90;;;1.37;55.99;96396.69;5042927;28;20037;-59
2022/12/16 01:13:25;;;;;;;32.87;16.33;;;-2.50;99.90;;;1.28;55.97;96407.16;5042759;28;20056;-59
2022/12/16 01:15:53;;;;;;;31.90;16.40;;;-2.50;99.90;;;1.40;55.62;96403.47;5042894;28;20045;-58
2022/12/16 01:18:21;;;;;;;30.23;15.67;;;-2.50;99.90;;;1.22;56.36;96405.88;5042458;28;20049;-59
2022/12/16 01:20:49;;;;;;;32.20;16.60;;;-2.60;99.90;;;1.08;56.69;96406.25;5043370;28;20052;-59
2022/12/16 01:23:17;;;;;;;33.20;17.10;;;-2.60;99.90;;;0.88;57.20;96407.97;5043466;28;20044;-49
2022/12/16 01:25:47;;;;;;;36.40;18.73;;;-2.80;99.90;;;0.98;57.47;96414.91;5034493;28;20037;-51
2022/12/16 01:28:15;;;;;;;32.23;16.67;;;-2.70;99.90;;;1.16;56.84;96411.66;5043324;28;20248;-50
2022/12/16 01:30:43;;;;;;;32.10;17.63;;;-2.70;99.90;;;1.27;56.35;96414.19;5041178;28;20254;-52
2022/12/16 01:33:11;;;;;;;34.77;17.27;;;-2.60;99.90;;;1.30;56.46;96410.47;5040882;28;20045;-54
2022/12/16 01:35:39;;;;;;;33.13;16.07;;;-2.50;99.90;;;1.30;56.83;96411.31;5034643;28;20049;-54
2022/12/16 01:38:23;;;;;;;34.88;17.55;;;-2.50;99.90;;;1.33;56.48;96408.41;5043453;28;20045;-52
2022/12/16 01:40:51;;;;;;;30.47;14.87;;;-2.50;99.90;;;1.40;56.93;96408.72;5042876;28;20053;-54
2022/12/16 01:43:27;;;;;;;32.40;17.27;;;-2.50;99.90;;;1.47;55.73;96414.25;5043544;28;20045;-50
2022/12/16 01:46:06;;;;;;;30.77;17.33;;;-2.40;99.90;;;1.54;56.10;96410.94;5042377;28;20045;-54
2022/12/16 01:48:59;;;;;;;30.13;15.10;;;-2.40;99.90;;;1.50;55.96;96416.59;5042273;28;20041;-55
2022/12/16 01:51:43;;;;;;;31.03;15.63;;;-2.30;99.90;;;1.57;55.86;96413.31;5042826;28;20042;-53
2022/12/16 01:54:27;;;;;;;31.93;16.90;;;-2.30;99.90;;;1.53;56.58;96417.16;5041992;28;20049;-52
2022/12/16 01:57:26;;;;;;;28.13;16.90;;;-2.40;99.90;;;1.49;56.54;96426.28;5043574;28;20045;-51
2022/12/16 01:59:55;;;;;;;30.90;16.63;;;-2.40;99.90;;;1.49;56.62;96422.81;5034968;28;20053;-52
2022/12/16 02:02:23;;;;;;;35.03;18.60;;;-2.40;99.90;;;1.32;56.72;96429.53;5041213;28;20049;-52
2022/12/16 02:07:37;;;;;;;31.80;17.77;;;-2.40;99.90;;;1.50;55.78;96434.97;5042705;28;20053;-54
2022/12/16 02:10:06;;;;;;;36.57;17.47;;;-2.40;99.90;;;1.56;55.93;96437.88;5042753;28;20045;-51
2022/12/16 02:12:50;;;;;;;36.70;17.53;;;-2.40;99.90;;;1.49;56.44;96436.75;5042617;28;20045;-49
2022/12/16 02:15:43;;;;;;;28.23;16.35;;;-2.40;99.90;;;1.09;56.95;96449.88;5041657;28;20351;-53
2022/12/16 02:18:35;;;;;;;30.77;15.47;;;-2.60;99.90;;;1.24;56.36;96456.44;5041765;28;20077;-58
2022/12/16 02:21:18;;;;;;;30.10;17.03;;;-2.50;99.90;;;1.08;56.62;96451.66;5036361;28;20263;-58
2022/12/16 02:24:51;;;;;;;36.80;16.53;;;-2.60;99.90;;;0.91;58.03;96457.50;5035357;28;20038;-59
2022/12/16 02:28:01;;;;;;;31.40;16.25;;;-2.70;99.90;;;0.84;57.56;96451.97;5046956;28;20060;-59
2022/12/16 02:30:59;;;;;;;24.93;14.07;;;-2.60;99.90;;;0.88;57.97;96444.66;5042554;28;20049;-59
2022/12/16 02:33:27;;;;;;;28.13;14.13;;;-2.70;99.90;;;1.18;57.07;96449.91;5034079;28;20061;-59
2022/12/16 02:36:06;;;;;;;32.83;15.27;;;-2.60;99.90;;;1.15;56.83;96446.72;5042205;28;20045;-59
2022/12/16 02:39:11;;;;;;;28.33;14.63;;;-2.60;99.90;;;1.06;57.64;96448.31;5042337;28;20053;-59
2022/12/16 02:42:39;;;;;;;25.60;13.77;;;-2.50;99.90;;;1.27;57.28;96450.06;5040579;28;20037;-59
2022/12/16 02:45:25;;;;;;;26.80;13.10;;;-2.50;99.90;;;1.46;56.82;96446.69;5045519;28;20371;-59
2022/12/16 02:47:53;;;;;;;26.17;13.63;;;-2.30;99.90;;;1.58;56.41;96451.69;5034858;28;20045;-57
2022/12/16 02:50:44;;;;;;;30.43;14.13;;;-2.20;99.90;;;1.61;56.42;96444.50;5041942;28;20252;-59
2022/12/16 02:53:12;;;;;;;23.37;12.50;;;-2.20;99.90;;;1.49;55.84;96452.50;5040783;28;20056;-58
2022/12/16 02:56:32;;;;;;;24.33;12.87;;;-2.30;99.90;;;1.29;56.59;96459.47;5040468;28;20041;-59
2022/12/16 02:59:17;;;;;;;19.73;11.53;;;-2.40;99.90;;;1.42;55.83;96463.66;5036642;28;20043;-59
2022/12/16 03:02:14;;;;;;;30.00;14.73;;;-2.40;99.90;;;1.47;55.89;96470.13;5032810;28;20243;-59
2022/12/16 03:04:58;;;;;;;25.33;14.47;;;-2.40;99.90;;;1.40;56.27;96471.66;5032842;28;20049;-59
2022/12/16 03:07:30;;;;;;;24.73;13.90;;;-2.50;99.90;;;1.51;55.76;96470.72;5042573;28;20052;-59
2022/12/16 03:10:00;;;;;;;23.83;14.07;;;-2.40;99.90;;;1.52;56.33;96477.63;5024799;28;20045;-59
2022/12/16 03:12:28;;;;;;;27.07;14.03;;;-2.30;99.90;;;1.63;55.96;96477.53;5040406;28;20042;-59
2022/12/16 03:14:56;;;;;;;25.73;13.13;;;-2.30;99.90;;;1.72;55.45;96475.88;5042684;28;20056;-59
2022/12/16 03:17:26;;;;;;;23.40;13.23;;;-2.30;99.90;;;1.63;55.56;96472.28;5040840;28;20046;-58
2022/12/16 03:20:06;;;;;;;22.87;12.60;;;-2.30;99.90;;;1.52;55.68;96481.06;5040720;28;20041;-57
2022/12/16 03:22:37;;;;;;;27.97;14.43;;;-2.40;99.90;;;1.61;56.07;96484.72;5040323;28;20060;-59
2022/12/16 03:25:06;;;;;;;26.83;14.00;;;-2.40;99.90;;;1.58;55.91;96484.97;5040493;28;20055;-60
2022/12/16 03:27:39;;;;;;;28.47;14.47;;;-2.40;99.90;;;1.62;55.71;96483.72;5040566;28;20046;-59
2022/12/16 03:30:18;;;;;;;25.13;14.90;;;-2.40;99.90;;;1.66;55.68;96486.91;5040560;28;20046;-59
2022/12/16 03:33:02;;;;;;;26.03;14.60;;;-2.30;99.90;;;1.50;56.04;96487.44;5031560;28;20461;-59
2022/12/16 03:35:46;;;;;;;26.70;15.13;;;-2.40;99.90;;;1.36;56.65;96484.19;5040604;28;20047;-59
2022/12/16 03:38:15;;;;;;;22.57;12.63;;;-2.40;99.90;;;1.11;57.82;96492.50;5040461;28;20045;-59
2022/12/16 03:40:43;;;;;;;25.93;14.20;;;-2.60;99.90;;;1.11;57.16;96489.91;5041231;28;20347;-60
2022/12/16 03:43:15;;;;;;;26.83;13.80;;;-2.60;99.90;;;0.87;57.65;96492.78;5040363;28;20048;-59
2022/12/16 03:45:44;;;;;;;29.83;15.70;;;-2.70;99.90;;;0.91;58.10;96502.03;5039561;28;20068;-60
2022/12/16 03:48:14;;;;;;;26.27;14.60;;;-2.70;99.90;;;0.98;57.74;96504.03;5040494;28;20045;-59
2022/12/16 03:50:42;;;;;;;27.83;13.57;;;-2.70;99.90;;;1.02;57.89;96506.41;5040280;28;20063;-60
2022/12/16 03:53:10;;;;;;;26.07;13.30;;;-2.70;99.90;;;1.22;57.42;96507.31;5041130;28;20116;-59
2022/12/16 03:55:37;;;;;;;21.70;12.67;;;-2.60;99.90;;;1.36;57.20;96502.56;5040318;28;20045;-60
2022/12/16 03:58:06;;;;;;;24.13;12.43;;;-2.50;99.90;;;1.46;56.33;96499.16;5040365;28;20045;-59
2022/12/16 04:00:33;;;;;;;27.50;13.53;;;-2.40;99.90;;;1.50;56.20;96511.84;5041244;28;20053;-59
2022/12/16 04:03:01;;;;;;;26.80;14.20;;;-2.40;99.90;;;1.45;57.07;96513.22;5040711;28;20046;-60
2022/12/16 04:05:30;;;;;;;26.10;15.33;;;-2.40;99.90;;;1.47;56.92;96514.72;5041279;28;20042;-59
2022/12/16 04:07:57;;;;;;;25.80;15.53;;;-2.40;99.90;;;1.45;56.50;96523.69;5044897;28;20066;-59
2022/12/16 04:25:21;;;;;;;21.90;12.37;;;-2.40;99.90;;;1.64;55.89;96528.19;5039649;28;20056;-59
2022/12/16 04:27:49;;;;;;;22.13;12.40;;;-2.30;99.90;;;1.59;56.34;96531.22;5035801;28;20236;-59
2022/12/16 04:30:19;;;;;;;28.80;13.73;;;-2.30;99.90;;;1.74;56.55;96529.06;5043589;28;20240;-60
